createdAt,value
2019-05-13T00:02:24.263Z,102946.92
2019-05-13T00:04:55.095Z,102942.34
2019-05-13T00:07:25.220Z,102939.13
2019-05-13T00:09:54.434Z,102941.47
2019-05-13T00:12:24.378Z,102942.43
2019-05-13T00:14:53.986Z,102938.01
2019-05-13T00:17:23.693Z,102939.85
2019-05-13T00:19:53.237Z,102943.22
2019-05-13T00:22:23.431Z,102945.41
2019-05-13T00:24:54.231Z,102938.95
2019-05-13T00:27:23.512Z,102891.37
2019-05-13T00:29:53.859Z,102944.55
2019-05-13T00:32:24.045Z,102935.53
2019-05-13T00:34:53.445Z,102938.52
2019-05-13T00:37:24.330Z,102945.84
2019-05-13T00:39:54.396Z,102949.67
2019-05-13T00:42:24.503Z,102951.66
2019-05-13T00:44:53.311Z,102955.34
2019-05-13T00:47:23.655Z,102951.10
2019-05-13T00:49:54.109Z,102955.37
2019-05-13T00:52:23.571Z,102948.73
2019-05-13T00:54:53.496Z,102954.17
2019-05-13T00:57:23.825Z,102948.95
2019-05-13T00:59:54.120Z,102959.01
2019-05-13T01:02:24.291Z,102957.77
2019-05-13T01:04:55.034Z,102955.39
2019-05-13T01:07:28.562Z,102953.03
2019-05-13T01:09:56.263Z,102954.40
2019-05-13T01:12:25.076Z,102953.97
2019-05-13T01:15:00.422Z,102960.41
2019-05-13T01:17:30.531Z,102959.38
2019-05-13T01:20:04.312Z,102957.20
2019-05-13T01:22:34.403Z,102965.95
2019-05-13T01:25:04.520Z,102963.70
2019-05-13T01:27:33.559Z,102967.16
2019-05-13T01:30:04.106Z,102969.03
2019-05-13T01:32:34.276Z,102967.80
2019-05-13T01:35:04.610Z,102967.06
2019-05-13T01:37:42.122Z,102968.36
2019-05-13T01:40:05.078Z,102967.42
2019-05-13T01:42:33.927Z,102966.89
2019-05-13T01:45:04.693Z,102963.74
2019-05-13T01:47:36.497Z,102967.89
2019-05-13T01:50:05.624Z,102964.81
2019-05-13T01:52:34.494Z,102962.13
2019-05-13T01:55:04.652Z,102968.66
2019-05-13T01:57:34.245Z,102970.41
2019-05-13T02:00:04.668Z,102973.35
2019-05-13T02:02:33.826Z,102977.13
2019-05-13T02:05:04.010Z,102973.51
2019-05-13T02:07:36.016Z,102970.21
2019-05-13T02:10:05.397Z,102969.13
2019-05-13T02:12:34.602Z,102971.56
2019-05-13T02:15:04.457Z,102972.47
2019-05-13T02:17:33.780Z,102975.26
2019-05-13T02:20:06.984Z,102973.12
2019-05-13T02:22:35.903Z,102973.12
2019-05-13T02:25:07.036Z,102971.20
2019-05-13T02:27:35.588Z,102966.15
2019-05-13T02:30:05.659Z,102968.00
2019-05-13T02:32:34.874Z,102971.52
2019-05-13T02:35:03.441Z,102977.06
2019-05-13T02:37:34.280Z,102975.36
2019-05-13T02:40:03.492Z,102978.48
2019-05-13T02:42:34.848Z,102981.59
2019-05-13T02:45:03.996Z,102977.94
2019-05-13T02:47:33.182Z,102977.67
2019-05-13T02:50:05.114Z,102976.03
2019-05-13T02:52:33.684Z,102982.64
2019-05-13T02:55:04.053Z,102988.84
2019-05-13T02:57:33.038Z,102995.27
2019-05-13T03:00:04.093Z,102992.70
2019-05-13T03:02:33.946Z,102997.66
2019-05-13T03:05:04.989Z,103001.25
2019-05-13T03:07:38.339Z,103001.18
2019-05-13T03:10:07.612Z,103001.88
2019-05-13T03:12:36.173Z,103003.98
2019-05-13T03:15:05.254Z,103003.55
2019-05-13T03:17:43.297Z,103009.46
2019-05-13T03:20:16.505Z,103000.40
2019-05-13T03:22:43.501Z,103000.05
2019-05-13T03:25:13.171Z,102999.94
2019-05-13T03:27:42.785Z,103006.65
2019-05-13T03:30:16.342Z,103003.31
2019-05-13T03:32:58.472Z,103013.19
2019-05-13T03:35:25.746Z,103007.92
2019-05-13T03:37:52.785Z,103017.23
2019-05-13T03:40:23.094Z,103023.45
2019-05-13T03:42:53.838Z,103022.97
2019-05-13T03:45:26.020Z,103024.36
2019-05-13T03:47:56.275Z,103025.85
2019-05-13T03:50:30.356Z,103031.19
2019-05-13T03:52:56.976Z,103028.91
2019-05-13T03:55:27.943Z,103035.00
2019-05-13T03:57:56.875Z,103033.55
2019-05-13T04:00:26.169Z,103037.17
2019-05-13T04:02:54.895Z,103034.89
2019-05-13T04:05:27.475Z,103026.73
2019-05-13T04:07:56.217Z,103023.05
2019-05-13T04:10:24.768Z,103021.71
2019-05-13T04:12:54.903Z,103029.27
2019-05-13T04:15:23.988Z,103027.58
2019-05-13T04:17:53.393Z,103033.07
2019-05-13T04:20:23.520Z,103032.60
2019-05-13T04:22:53.244Z,103026.91
2019-05-13T04:25:23.445Z,103024.41
2019-05-13T04:27:52.581Z,103036.82
2019-05-13T04:30:22.315Z,103039.72
2019-05-13T04:32:53.370Z,103045.94
2019-05-13T04:35:25.261Z,103049.96
2019-05-13T04:37:53.857Z,103045.94
2019-05-13T04:40:23.463Z,103049.06
2019-05-13T04:42:53.819Z,103054.86
2019-05-13T04:45:24.206Z,103048.67
2019-05-13T04:47:54.846Z,103049.94
2019-05-13T04:50:25.165Z,103053.52
2019-05-13T04:52:55.223Z,103061.89
2019-05-13T04:55:25.362Z,103063.16
2019-05-13T04:57:54.324Z,103063.45
2019-05-13T05:00:49.923Z,103068.97
2019-05-13T05:03:33.249Z,103066.52
2019-05-13T05:06:05.619Z,103062.38
2019-05-13T05:09:17.172Z,103063.38
2019-05-13T05:12:23.246Z,103069.99
2019-05-13T05:15:18.433Z,103070.92
2019-05-13T05:18:02.850Z,103064.41
2019-05-13T05:20:43.011Z,103073.14
2019-05-13T05:23:42.301Z,103062.66
2019-05-13T05:26:52.225Z,103062.62
2019-05-13T05:29:32.122Z,103068.26
2019-05-13T05:32:35.764Z,103067.69
2019-05-13T05:35:52.049Z,103076.17
2019-05-13T05:38:37.931Z,103065.80
2019-05-13T05:41:07.957Z,103071.56
2019-05-13T05:43:37.317Z,103072.14
2019-05-13T05:46:05.876Z,103064.23
2019-05-13T05:48:34.535Z,103067.42
2019-05-13T05:51:03.133Z,103070.92
2019-05-13T05:53:35.172Z,103069.19
2019-05-13T05:56:06.211Z,103068.41
2019-05-13T05:58:34.812Z,103069.78
2019-05-13T06:01:05.725Z,103073.77
2019-05-13T06:03:34.514Z,103079.47
2019-05-13T06:06:05.443Z,103075.10
2019-05-13T06:08:34.365Z,103071.58
2019-05-13T06:11:03.340Z,103065.44
2019-05-13T06:13:32.103Z,103068.06
2019-05-13T06:16:04.390Z,103065.42
2019-05-13T06:18:33.301Z,103065.42
2019-05-13T06:21:04.425Z,103068.01
2019-05-13T06:23:36.511Z,103070.68
2019-05-13T06:26:05.254Z,103076.36
2019-05-13T06:28:34.191Z,103073.30
2019-05-13T06:31:07.155Z,103071.58
2019-05-13T06:33:35.878Z,103063.20
2019-05-13T06:36:04.887Z,103069.39
2019-05-13T06:38:33.428Z,103073.77
2019-05-13T06:41:09.051Z,103071.59
2019-05-13T06:43:35.675Z,103070.23
2019-05-13T06:46:05.585Z,103064.91
2019-05-13T06:48:36.082Z,103069.33
2019-05-13T06:51:04.823Z,103067.48
2019-05-13T06:53:33.553Z,103073.72
2019-05-13T06:56:02.145Z,103076.38
2019-05-13T06:58:32.517Z,103067.84
2019-05-13T07:01:03.786Z,103069.59
2019-05-13T07:03:32.361Z,103069.27
2019-05-13T07:06:02.698Z,103064.88
2019-05-13T07:08:31.713Z,103067.50
2019-05-13T07:11:16.673Z,103066.66
2019-05-13T07:13:32.241Z,103063.68
2019-05-13T07:16:01.434Z,103070.37
2019-05-13T07:18:32.368Z,103063.09
2019-05-13T07:21:03.738Z,103064.44
2019-05-13T07:23:32.628Z,103068.70
2019-05-13T07:26:03.355Z,103066.27
2019-05-13T07:28:34.867Z,103066.31
2019-05-13T07:31:04.029Z,103059.72
2019-05-13T07:33:33.115Z,103058.36
2019-05-13T07:36:03.040Z,103060.30
2019-05-13T07:38:34.070Z,103053.77
2019-05-13T07:41:03.642Z,103048.93
2019-05-13T07:43:32.356Z,103048.30
2019-05-13T07:46:02.445Z,103043.75
2019-05-13T07:48:31.816Z,103044.45
2019-05-13T07:51:04.443Z,103046.53
2019-05-13T07:53:32.447Z,103039.77
2019-05-13T07:56:01.942Z,103043.97
2019-05-13T07:58:36.865Z,103051.52
2019-05-13T08:01:02.541Z,103061.22
2019-05-13T08:03:33.460Z,103050.66
2019-05-13T08:06:02.315Z,103051.52
2019-05-13T08:08:32.515Z,103050.92
2019-05-13T08:11:04.291Z,103047.39
2019-05-13T08:13:34.545Z,103006.85
2019-05-13T08:16:04.811Z,103050.66
2019-05-13T08:18:33.766Z,103054.22
2019-05-13T08:21:03.096Z,103054.42
2019-05-13T08:23:32.542Z,103046.41
2019-05-13T08:26:02.175Z,103044.70
2019-05-13T08:28:32.342Z,103042.03
2019-05-13T08:31:02.664Z,103048.23
2019-05-13T08:33:34.128Z,103028.45
2019-05-13T08:36:04.173Z,103035.06
2019-05-13T08:38:32.722Z,103036.08
2019-05-13T08:41:02.241Z,103043.58
2019-05-13T08:43:32.788Z,103044.15
2019-05-13T08:46:02.260Z,103033.33
2019-05-13T08:48:32.318Z,103032.96
2019-05-13T08:51:03.215Z,103032.14
2019-05-13T08:53:31.788Z,103026.92
2019-05-13T08:56:02.111Z,103031.83
2019-05-13T08:58:32.024Z,103026.55
2019-05-13T09:01:02.128Z,103023.37
2019-05-13T09:03:32.616Z,103035.06
2019-05-13T09:06:02.843Z,103026.67
2019-05-13T09:08:33.042Z,103013.17
2019-05-13T09:11:04.865Z,103020.70
2019-05-13T09:13:33.954Z,103021.77
2019-05-13T09:16:03.972Z,103017.55
2019-05-13T09:18:34.879Z,103021.57
2019-05-13T09:21:03.610Z,103022.16
2019-05-13T09:23:34.234Z,103023.41
2019-05-13T09:26:02.912Z,103022.23
2019-05-13T09:28:32.472Z,103015.33
2019-05-13T09:31:01.966Z,103022.20
2019-05-13T09:33:32.800Z,103013.80
2019-05-13T09:36:02.357Z,103020.42
2019-05-13T09:38:33.417Z,103016.72
2019-05-13T09:41:04.144Z,103013.16
2019-05-13T09:43:32.710Z,103000.16
2019-05-13T09:46:01.950Z,103003.98
2019-05-13T09:48:31.952Z,103007.27
2019-05-13T09:51:02.423Z,102999.73
2019-05-13T09:53:34.620Z,103005.77
2019-05-13T09:56:03.522Z,103004.82
2019-05-13T09:58:33.225Z,103000.77
2019-05-13T10:01:05.248Z,102998.16
2019-05-13T10:03:51.958Z,103001.46
2019-05-13T10:06:06.297Z,103006.06
2019-05-13T10:08:37.229Z,103000.95
2019-05-13T10:11:06.170Z,103002.95
2019-05-13T10:13:37.000Z,102990.23
2019-05-13T10:16:06.130Z,102990.33
2019-05-13T10:18:34.706Z,102996.80
2019-05-13T10:21:03.463Z,102995.05
2019-05-13T10:23:33.094Z,102991.92
2019-05-13T10:26:04.596Z,102994.89
2019-05-13T10:28:33.350Z,102992.06
2019-05-13T10:31:03.687Z,102976.16
2019-05-13T10:33:33.849Z,102980.61
2019-05-13T10:36:03.897Z,102992.76
2019-05-13T10:38:34.419Z,102991.67
2019-05-13T10:41:03.885Z,102978.98
2019-05-13T10:43:43.313Z,102981.17
2019-05-13T10:46:12.843Z,102980.69
2019-05-13T10:48:41.813Z,102982.73
2019-05-13T10:51:12.876Z,102979.12
2019-05-13T10:53:42.611Z,102985.98
2019-05-13T10:56:11.250Z,102981.89
2019-05-13T10:58:42.720Z,102964.91
2019-05-13T11:01:11.605Z,102971.02
2019-05-13T11:03:42.803Z,102979.84
2019-05-13T11:06:11.684Z,102968.02
2019-05-13T11:08:42.191Z,102961.52
2019-05-13T11:11:12.970Z,102962.55
2019-05-13T11:13:56.339Z,102965.45
2019-05-13T11:16:13.037Z,102953.41
2019-05-13T11:18:41.972Z,102954.95
2019-05-13T11:21:13.076Z,102946.84
2019-05-13T11:23:42.277Z,102945.44
2019-05-13T11:26:13.067Z,102939.06
2019-05-13T11:28:45.442Z,102937.68
2019-05-13T11:31:14.343Z,102934.02
2019-05-13T11:33:42.954Z,102937.55
2019-05-13T11:36:19.012Z,102939.05
2019-05-13T11:38:43.966Z,102942.20
2019-05-13T11:41:14.193Z,102929.21
2019-05-13T11:43:43.324Z,102925.03
2019-05-13T11:46:11.867Z,102928.56
2019-05-13T11:48:42.771Z,102926.78
2019-05-13T11:51:13.357Z,102914.14
2019-05-13T11:53:42.485Z,102912.84
2019-05-13T11:56:11.543Z,102906.48
2019-05-13T11:58:43.085Z,102909.78
2019-05-13T12:01:12.054Z,102913.92
2019-05-13T12:03:43.452Z,102911.59
2019-05-13T12:06:15.982Z,102918.17
2019-05-13T12:08:50.996Z,102900.16
2019-05-13T12:11:15.575Z,102903.06
2019-05-13T12:13:44.324Z,102890.70
2019-05-13T12:16:13.165Z,102901.65
2019-05-13T12:18:43.691Z,102912.25
2019-05-13T12:21:13.616Z,102905.77
2019-05-13T12:23:45.732Z,102893.77
2019-05-13T12:26:14.454Z,102886.19
2019-05-13T12:28:43.103Z,102899.80
2019-05-13T12:31:12.298Z,102888.88
2019-05-13T12:33:43.965Z,102888.77
2019-05-13T12:36:18.000Z,102890.02
